createdAt,value
2022-09-23T00:02:07.648Z,100844.09
2022-09-23T00:07:10.509Z,100856.09
2022-09-23T00:12:13.314Z,100855.69
2022-09-23T00:17:16.083Z,100859.44
2022-09-23T00:22:18.876Z,100860.91
2022-09-23T00:27:22.137Z,100860.91
2022-09-23T00:32:25.350Z,100867.22
2022-09-23T00:37:28.875Z,100880.53
2022-09-23T00:42:31.656Z,100868.59
2022-09-23T00:47:40.076Z,100874.06
2022-09-23T00:52:42.811Z,100871.94
2022-09-23T00:57:46.757Z,100868.28
2022-09-23T01:02:49.981Z,100872.56
2022-09-23T01:07:54.267Z,100897.41
2022-09-23T01:13:21.600Z,100890.66
2022-09-23T01:18:30.303Z,100900.84
2022-09-23T01:23:57.471Z,100877.66
2022-09-23T01:29:16.044Z,100909.00
2022-09-23T01:34:39.384Z,100916.13
2022-09-23T01:39:51.362Z,100889.28
2022-09-23T01:45:00.079Z,100924.06
2022-09-23T01:50:27.520Z,100938.06
2022-09-23T01:55:34.073Z,100938.50
2022-09-23T02:00:41.203Z,100952.31
2022-09-23T02:05:49.123Z,100945.47
2022-09-23T02:10:59.125Z,100933.56
2022-09-23T02:16:05.949Z,100936.63
2022-09-23T02:21:10.296Z,100939.38
2022-09-23T02:26:20.029Z,100936.63
2022-09-23T02:31:57.144Z,100928.91
2022-09-23T02:37:30.377Z,100935.16
2022-09-23T02:42:38.961Z,100938.72
2022-09-23T02:47:45.516Z,100945.16
2022-09-23T02:52:48.509Z,100953.22
2022-09-23T02:57:53.736Z,100958.69
2022-09-23T03:03:40.869Z,100953.88
2022-09-23T03:09:07.191Z,100931.38
2022-09-23T03:14:18.015Z,100958.91
2022-09-23T03:19:44.931Z,100960.53
2022-09-23T03:24:54.028Z,100838.44
2022-09-23T03:29:57.560Z,100941.88
2022-09-23T03:35:02.213Z,100944.78
2022-09-23T03:40:09.372Z,100959.19
2022-09-23T03:45:19.444Z,100951.75
2022-09-23T03:50:22.677Z,100955.91
2022-09-23T03:55:25.627Z,100928.31
2022-09-23T04:00:28.357Z,100963.59
2022-09-23T04:05:31.190Z,100965.97
2022-09-23T04:10:33.941Z,100966.34
2022-09-23T04:15:36.729Z,100959.88
2022-09-23T04:20:39.861Z,100952.81
2022-09-23T04:25:49.868Z,100942.22
2022-09-23T04:30:52.698Z,100947.88
2022-09-23T04:35:56.238Z,100929.19
2022-09-23T04:40:59.300Z,100940.81
2022-09-23T04:46:04.060Z,100924.09
2022-09-23T04:51:09.406Z,100915.75
2022-09-23T04:56:17.739Z,100917.88
2022-09-23T05:01:27.333Z,100911.44
2022-09-23T05:06:31.892Z,100895.72
2022-09-23T05:11:35.291Z,100891.75
2022-09-23T05:16:38.032Z,100877.84
2022-09-23T05:21:40.780Z,100882.63
2022-09-23T05:26:43.503Z,100883.16
2022-09-23T05:31:46.578Z,100887.09
2022-09-23T05:36:49.906Z,100884.69
2022-09-23T05:41:54.189Z,100863.75
2022-09-23T05:46:57.133Z,100876.63
2022-09-23T05:51:59.891Z,100884.09
2022-09-23T05:57:05.037Z,100877.66
2022-09-23T06:02:09.660Z,100874.84
2022-09-23T06:07:12.479Z,100867.28
2022-09-23T06:12:15.331Z,100861.81
2022-09-23T06:17:18.153Z,100827.69
2022-09-23T06:22:20.976Z,100846.94
2022-09-23T06:27:23.926Z,100834.47
2022-09-23T06:32:26.672Z,100836.56
2022-09-23T06:37:31.059Z,100823.75
2022-09-23T06:42:33.794Z,100815.44
2022-09-23T06:47:38.179Z,100805.00
2022-09-23T06:52:41.520Z,100804.31
2022-09-23T06:57:44.280Z,100802.09
2022-09-23T07:02:47.566Z,100780.97
2022-09-23T07:07:50.401Z,100764.13
2022-09-23T07:12:53.114Z,100774.00
2022-09-23T07:17:56.132Z,100758.09
2022-09-23T07:22:58.848Z,100769.72
2022-09-23T07:28:01.881Z,100763.00
2022-09-23T07:33:14.965Z,100761.66
2022-09-23T07:38:30.511Z,100757.56
2022-09-23T07:43:33.569Z,100746.53
2022-09-23T07:48:37.191Z,100734.50
2022-09-23T07:53:40.241Z,100707.00
2022-09-23T07:58:43.084Z,100721.16
2022-09-23T08:03:46.050Z,100713.63
2022-09-23T08:08:53.085Z,100701.72
2022-09-23T08:13:57.080Z,100700.28
2022-09-23T08:18:59.891Z,100689.19
2022-09-23T08:24:03.066Z,100682.47
2022-09-23T08:29:06.310Z,100678.16
2022-09-23T08:34:09.668Z,100679.97
2022-09-23T08:39:17.672Z,100692.88
2022-09-23T08:44:34.031Z,100687.91
2022-09-23T08:49:59.283Z,100658.72
2022-09-23T08:55:02.359Z,100693.41
2022-09-23T09:00:06.617Z,100665.69
2022-09-23T09:05:10.367Z,100695.91
2022-09-23T09:10:20.461Z,100679.59
2022-09-23T09:15:27.671Z,100687.44
2022-09-23T09:20:39.387Z,100683.25
2022-09-23T09:25:45.398Z,100692.75
2022-09-23T09:30:52.956Z,100683.34
2022-09-23T09:36:09.384Z,100682.47
2022-09-23T09:41:18.234Z,100669.66
2022-09-23T09:46:46.284Z,100666.22
2022-09-23T09:51:49.946Z,100667.13
2022-09-23T09:56:53.305Z,100657.69
2022-09-23T10:02:14.695Z,100661.09
2022-09-23T10:07:25.958Z,100657.69
2022-09-23T10:12:44.707Z,100646.50
2022-09-23T10:17:51.654Z,100639.63
2022-09-23T10:22:57.165Z,100642.19
2022-09-23T10:28:00.147Z,100635.28
2022-09-23T10:33:04.535Z,100633.41
2022-09-23T10:38:08.598Z,100617.88
2022-09-23T10:43:49.369Z,100629.13
2022-09-23T10:49:24.602Z,100634.16
2022-09-23T10:54:30.409Z,100629.75
2022-09-23T10:59:55.608Z,100620.97
2022-09-23T11:05:04.091Z,100618.13
2022-09-23T11:10:44.906Z,100603.31
2022-09-23T11:16:05.437Z,100597.31
2022-09-23T11:21:10.187Z,100599.84
2022-09-23T11:26:33.311Z,100588.50
2022-09-23T11:31:59.749Z,100587.47
2022-09-23T11:37:13.810Z,100577.03
2022-09-23T11:42:22.390Z,100561.50
2022-09-23T11:47:32.310Z,100576.94
2022-09-23T11:52:49.380Z,100575.91
2022-09-23T11:57:54.739Z,100576.63
2022-09-23T12:03:09.779Z,100575.44
2022-09-23T12:08:25.882Z,100565.59
2022-09-23T12:13:44.347Z,100565.38
2022-09-23T12:19:04.842Z,100565.19
2022-09-23T12:24:34.803Z,100573.31
2022-09-23T12:29:38.983Z,100572.00
2022-09-23T12:34:49.424Z,100579.34
2022-09-23T12:39:52.188Z,100568.38
2022-09-23T12:45:35.176Z,100572.28
2022-09-23T12:50:52.123Z,100569.22
2022-09-23T12:55:54.930Z,100550.63
2022-09-23T13:01:16.249Z,100578.88
2022-09-23T13:06:37.686Z,100582.53
2022-09-23T13:11:43.721Z,100590.03
2022-09-23T13:16:47.224Z,100594.63
2022-09-23T13:21:51.077Z,100589.28
2022-09-23T13:27:01.073Z,100591.44
2022-09-23T13:32:06.325Z,100586.00
2022-09-23T13:37:22.182Z,100589.84
2022-09-23T13:42:27.951Z,100597.22
2022-09-23T13:47:31.630Z,100599.31
2022-09-23T13:52:34.540Z,100590.47
2022-09-23T13:57:37.905Z,100585.09
2022-09-23T14:02:44.087Z,100559.78
2022-09-23T14:07:47.241Z,100583.13
2022-09-23T14:12:51.410Z,100597.00
2022-09-23T14:18:02.970Z,100591.06
2022-09-23T14:23:14.450Z,100604.66
2022-09-23T14:28:19.096Z,100595.16
2022-09-23T14:33:41.127Z,100601.28
2022-09-23T14:38:52.629Z,100589.53
2022-09-23T14:44:00.487Z,100610.09
2022-09-23T14:49:03.545Z,100616.63
2022-09-23T14:54:33.639Z,100615.81
2022-09-23T14:59:37.737Z,100610.25
2022-09-23T15:04:40.455Z,100610.44
2022-09-23T15:09:44.709Z,100604.72
2022-09-23T15:14:52.204Z,100600.22
2022-09-23T15:19:58.055Z,100611.59
2022-09-23T15:25:21.762Z,100608.19
2022-09-23T15:30:25.408Z,100608.75
2022-09-23T15:35:29.351Z,100604.25
2022-09-23T15:40:34.713Z,100604.25
2022-09-23T15:45:41.133Z,100606.44
2022-09-23T15:50:46.097Z,100594.81
2022-09-23T15:55:51.993Z,100596.84
2022-09-23T16:00:57.019Z,100587.81
2022-09-23T16:06:03.490Z,100608.09
2022-09-23T16:11:06.843Z,100614.13
2022-09-23T16:16:10.343Z,100589.53
2022-09-23T16:21:14.010Z,100603.41
2022-09-23T16:26:29.969Z,100547.16
2022-09-23T16:31:33.252Z,100602.50
2022-09-23T16:36:41.773Z,100593.69
2022-09-23T16:41:44.573Z,100600.34
2022-09-23T16:46:47.326Z,100598.72
2022-09-23T16:51:50.093Z,100587.19
2022-09-23T16:56:52.976Z,100546.88
2022-09-23T17:02:14.602Z,100576.69
2022-09-23T17:07:17.411Z,100576.19
2022-09-23T17:12:33.946Z,100590.16
2022-09-23T17:17:38.209Z,100589.44
2022-09-23T17:22:41.919Z,100590.69
2022-09-23T17:27:44.772Z,100587.22
2022-09-23T17:32:47.722Z,100605.59
2022-09-23T17:37:50.510Z,100599.69
2022-09-23T17:42:56.149Z,100617.13
2022-09-23T17:47:58.867Z,100611.91
2022-09-23T17:53:01.672Z,100611.50
2022-09-23T17:58:04.581Z,100599.75
2022-09-23T18:03:07.436Z,100611.75
2022-09-23T18:08:10.236Z,100604.13
2022-09-23T18:13:13.195Z,100599.28
2022-09-23T18:18:16.024Z,100608.19
2022-09-23T18:23:21.778Z,100598.03
2022-09-23T18:28:34.542Z,100605.81
2022-09-23T18:33:38.094Z,100611.91
2022-09-23T18:38:41.155Z,100612.84
2022-09-23T18:43:48.292Z,100606.69
2022-09-23T18:49:10.462Z,100620.50
2022-09-23T18:54:13.098Z,100627.50
2022-09-23T18:59:19.820Z,100627.47
2022-09-23T19:04:24.035Z,100622.22
2022-09-23T19:09:26.834Z,100577.88
2022-09-23T19:14:29.643Z,100596.44
2022-09-23T19:19:32.449Z,100592.31
2022-09-23T19:24:35.178Z,100626.38
2022-09-23T19:29:39.600Z,100631.25
2022-09-23T19:34:42.569Z,100639.69
2022-09-23T19:39:46.232Z,100641.03
2022-09-23T19:44:50.648Z,100641.13
2022-09-23T19:49:53.385Z,100646.38
2022-09-23T19:54:56.116Z,100642.28
2022-09-23T19:59:58.859Z,100638.00
2022-09-23T20:05:01.509Z,100641.84
2022-09-23T20:10:05.561Z,100652.88
2022-09-23T20:15:09.519Z,100651.97
2022-09-23T20:20:13.465Z,100653.50
2022-09-23T20:25:16.371Z,100652.69
2022-09-23T20:30:19.349Z,100663.03
2022-09-23T20:35:22.032Z,100652.66
2022-09-23T20:40:24.826Z,100658.78
2022-09-23T20:45:27.570Z,100658.47
2022-09-23T20:50:30.722Z,100658.09
2022-09-23T20:55:33.970Z,100656.78
2022-09-23T21:00:36.802Z,100652.91
2022-09-23T21:05:42.868Z,100660.38
2022-09-23T21:10:57.011Z,100681.69
2022-09-23T21:16:12.410Z,100686.75
2022-09-23T21:21:15.765Z,100682.88
2022-09-23T21:26:23.645Z,100693.31
2022-09-23T21:31:28.406Z,100695.53
2022-09-23T21:36:33.359Z,100708.28
2022-09-23T21:41:36.438Z,100710.59
2022-09-23T21:46:39.296Z,100705.69
2022-09-23T21:51:42.294Z,100709.31
2022-09-23T21:56:45.198Z,100709.13
2022-09-23T22:01:53.988Z,100707.72
2022-09-23T22:06:57.833Z,100715.00
2022-09-23T22:12:08.943Z,100723.31
2022-09-23T22:17:15.032Z,100725.66
2022-09-23T22:22:18.911Z,100731.06
2022-09-23T22:27:21.722Z,100711.72
2022-09-23T22:32:40.934Z,100720.75
2022-09-23T22:37:44.672Z,100720.50
2022-09-23T22:42:47.611Z,100752.53
2022-09-23T22:47:53.621Z,100759.50
2022-09-23T22:52:57.853Z,100757.84
2022-09-23T22:58:15.356Z,100736.28
2022-09-23T23:03:24.760Z,100765.53
2022-09-23T23:08:29.132Z,100751.34
2022-09-23T23:13:32.807Z,100763.75
2022-09-23T23:18:39.348Z,100786.16
2022-09-23T23:23:44.922Z,100777.78
2022-09-23T23:28:48.442Z,100766.91
2022-09-23T23:33:51.679Z,100784.69
2022-09-23T23:38:54.512Z,100783.53
2022-09-23T23:43:59.251Z,100771.25
2022-09-23T23:49:02.034Z,100781.81
2022-09-23T23:54:04.989Z,100787.91
2022-09-23T23:59:07.726Z,100789.13
